createdAt,value
2022-09-10T00:03:08.560Z,12.29
2022-09-10T00:08:12.439Z,12.27
2022-09-10T00:13:21.069Z,12.24
2022-09-10T00:18:24.054Z,12.24
2022-09-10T00:23:30.055Z,12.23
2022-09-10T00:28:33.005Z,12.19
2022-09-10T00:33:35.889Z,12.18
2022-09-10T00:38:38.967Z,12.18
2022-09-10T00:44:02.525Z,12.11
2022-09-10T00:49:21.506Z,12.10
2022-09-10T01:10:36.145Z,12.04
2022-09-10T01:16:02.539Z,12.02
2022-09-10T01:21:32.260Z,11.99
2022-09-10T01:27:19.160Z,12.01
2022-09-10T01:32:30.212Z,12.01
2022-09-10T01:37:37.911Z,12.02
2022-09-10T01:42:41.285Z,12.01
2022-09-10T01:48:01.831Z,11.97
2022-09-10T01:53:28.256Z,11.98
2022-09-10T01:58:40.206Z,12.01
2022-09-10T02:03:47.256Z,12.00
2022-09-10T02:08:53.874Z,11.98
2022-09-10T02:13:57.754Z,12.00
2022-09-10T02:19:01.558Z,12.02
2022-09-10T02:24:09.834Z,12.03
2022-09-10T02:29:14.281Z,12.02
2022-09-10T02:34:15.785Z,12.00
2022-09-10T02:39:17.353Z,12.02
2022-09-10T02:44:18.892Z,12.03
2022-09-10T02:49:21.105Z,12.03
2022-09-10T02:54:22.587Z,12.07
2022-09-10T02:59:24.576Z,12.11
2022-09-10T03:04:26.091Z,12.08
2022-09-10T03:09:28.268Z,12.10
2022-09-10T03:14:30.526Z,12.13
2022-09-10T03:19:32.034Z,12.15
2022-09-10T03:24:33.520Z,12.14
2022-09-10T03:29:35.699Z,12.10
2022-09-10T03:34:37.268Z,12.02
2022-09-10T03:39:38.742Z,11.96
2022-09-10T03:44:40.368Z,11.93
2022-09-10T03:49:42.173Z,11.92
2022-09-10T03:54:44.930Z,11.93
2022-09-10T03:59:46.561Z,11.94
2022-09-10T04:04:48.405Z,11.98
2022-09-10T04:09:50.227Z,12.02
2022-09-10T04:14:52.097Z,12.01
2022-09-10T04:19:53.659Z,12.01
2022-09-10T04:24:55.339Z,12.00
2022-09-10T04:29:57.077Z,12.01
2022-09-10T04:34:58.629Z,12.05
2022-09-10T04:40:00.570Z,12.05
2022-09-10T04:45:02.273Z,12.07
2022-09-10T04:50:05.928Z,12.12
2022-09-10T04:55:07.893Z,12.14
2022-09-10T05:00:10.540Z,12.16
2022-09-10T05:05:12.060Z,12.18
2022-09-10T05:10:14.746Z,12.20
2022-09-10T05:15:16.311Z,12.18
2022-09-10T05:20:17.813Z,12.16
2022-09-10T05:25:19.265Z,12.15
2022-09-10T05:30:21.359Z,12.16
2022-09-10T05:35:22.846Z,12.16
2022-09-10T05:40:24.856Z,12.17
2022-09-10T05:45:26.561Z,12.17
2022-09-10T05:50:29.776Z,12.23
2022-09-10T05:55:32.591Z,12.29
2022-09-10T06:00:35.896Z,12.36
2022-09-10T06:05:37.426Z,12.39
2022-09-10T06:10:38.933Z,12.45
2022-09-10T06:15:41.650Z,12.52
2022-09-10T06:20:43.145Z,12.56
2022-09-10T06:25:45.465Z,12.50
2022-09-10T06:30:46.974Z,12.49
2022-09-10T06:35:53.997Z,12.54
2022-09-10T06:41:00.090Z,12.57
2022-09-10T06:46:19.259Z,12.52
2022-09-10T06:51:31.436Z,12.61
2022-09-10T06:56:33.436Z,12.69
2022-09-10T07:01:35.229Z,12.74
2022-09-10T07:06:37.779Z,12.77
2022-09-10T07:11:41.768Z,12.91
2022-09-10T07:16:44.043Z,13.00
2022-09-10T07:21:45.551Z,13.02
2022-09-10T07:26:47.083Z,13.05
2022-09-10T07:31:49.016Z,13.09
2022-09-10T07:36:50.748Z,13.25
2022-09-10T07:41:52.878Z,13.48
2022-09-10T07:46:54.422Z,13.68
2022-09-10T07:51:59.776Z,13.93
2022-09-10T07:57:02.529Z,13.93
2022-09-10T08:02:05.927Z,13.81
2022-09-10T08:07:07.783Z,13.73
2022-09-10T08:12:09.348Z,13.75
2022-09-10T08:17:10.927Z,13.92
2022-09-10T08:22:13.847Z,14.21
2022-09-10T08:27:16.850Z,14.28
2022-09-10T08:32:18.410Z,14.31
2022-09-10T08:37:20.894Z,14.22
2022-09-10T08:42:32.740Z,14.15
2022-09-10T08:48:01.907Z,14.04
2022-09-10T08:53:22.575Z,14.07
2022-09-10T08:58:41.956Z,14.21
2022-09-10T09:03:46.839Z,14.57
2022-09-10T09:08:49.639Z,15.04
2022-09-10T09:14:12.485Z,15.21
2022-09-10T09:19:48.974Z,15.11
2022-09-10T09:25:03.543Z,15.06
2022-09-10T09:30:16.799Z,14.73
2022-09-10T09:35:31.862Z,14.45
2022-09-10T09:40:50.144Z,14.33
2022-09-10T09:45:53.393Z,14.22
2022-09-10T09:50:59.762Z,14.27
2022-09-10T09:56:10.383Z,14.32
2022-09-10T10:01:17.589Z,14.33
2022-09-10T10:06:28.093Z,14.36
2022-09-10T10:11:44.901Z,14.41
2022-09-10T10:16:48.318Z,14.55
2022-09-10T10:21:49.928Z,14.50
2022-09-10T10:26:51.556Z,14.43
2022-09-10T10:31:55.583Z,14.34
2022-09-10T10:37:42.430Z,14.32
2022-09-10T10:43:15.713Z,14.31
2022-09-10T10:48:29.093Z,14.24
2022-09-10T10:54:04.853Z,14.17
2022-09-10T10:59:36.335Z,14.11
2022-09-10T11:04:53.680Z,14.01
2022-09-10T11:10:24.261Z,13.92
2022-09-10T11:15:53.324Z,13.95
2022-09-10T11:21:15.755Z,14.02
2022-09-10T11:26:54.050Z,14.14
2022-09-10T11:32:17.799Z,14.20
2022-09-10T11:37:22.038Z,14.30
2022-09-10T11:42:41.354Z,14.42
2022-09-10T11:48:01.536Z,14.40
2022-09-10T11:53:06.764Z,14.37
2022-09-10T11:58:45.656Z,14.32
2022-09-10T12:04:08.205Z,14.29
2022-09-10T12:09:49.207Z,14.35
2022-09-10T12:14:51.042Z,14.31
2022-09-10T12:19:55.972Z,14.36
2022-09-10T12:25:15.755Z,14.38
2022-09-10T12:30:30.294Z,14.45
2022-09-10T12:35:34.894Z,14.47
2022-09-10T12:40:36.423Z,14.42
2022-09-10T12:46:09.278Z,14.40
2022-09-10T12:51:17.457Z,14.47
2022-09-10T12:56:56.877Z,14.56
2022-09-10T13:01:59.198Z,14.57
2022-09-10T13:07:27.372Z,14.48
2022-09-10T13:12:32.238Z,14.46
2022-09-10T13:18:00.732Z,14.43
2022-09-10T13:23:08.255Z,14.40
2022-09-10T13:28:29.295Z,14.44
2022-09-10T13:33:44.901Z,14.47
2022-09-10T13:39:40.923Z,14.50
2022-09-10T13:45:22.983Z,14.46
2022-09-10T13:50:37.162Z,14.34
2022-09-10T13:55:54.574Z,14.30
2022-09-10T14:01:05.854Z,14.21
2022-09-10T14:06:22.124Z,14.15
2022-09-10T14:11:29.781Z,14.07
2022-09-10T14:16:37.410Z,14.06
2022-09-10T14:21:38.962Z,13.94
2022-09-10T14:26:40.543Z,13.86
2022-09-10T14:31:42.248Z,13.78
2022-09-10T14:36:43.786Z,13.71
2022-09-10T14:41:46.469Z,13.65
2022-09-10T14:47:36.657Z,13.57
2022-09-10T14:52:38.391Z,13.51
2022-09-10T14:57:40.743Z,13.50
2022-09-10T15:02:42.399Z,13.60
2022-09-10T15:07:46.871Z,13.66
2022-09-10T15:12:51.918Z,13.75
2022-09-10T15:17:53.514Z,13.84
2022-09-10T15:22:55.126Z,13.93
2022-09-10T15:27:56.774Z,13.97
2022-09-10T15:32:58.360Z,13.99
2022-09-10T15:38:02.951Z,13.96
2022-09-10T15:43:05.601Z,13.89
2022-09-10T15:48:07.788Z,13.81
2022-09-10T15:53:20.695Z,13.79
2022-09-10T15:58:23.502Z,13.81
2022-09-10T16:03:25.708Z,13.79
2022-09-10T16:08:28.247Z,13.76
2022-09-10T16:13:30.635Z,13.72
2022-09-10T16:18:36.736Z,13.66
2022-09-10T16:23:41.453Z,13.54
2022-09-10T16:28:51.751Z,13.47
2022-09-10T16:33:55.890Z,13.41
2022-09-10T16:39:02.652Z,13.35
2022-09-10T16:44:05.343Z,13.33
2022-09-10T16:49:11.901Z,13.32
2022-09-10T16:54:15.331Z,13.25
2022-09-10T16:59:21.149Z,13.22
2022-09-10T17:04:29.140Z,13.13
2022-09-10T17:09:31.374Z,13.04
2022-09-10T17:14:33.022Z,13.00
2022-09-10T17:19:37.436Z,13.01
2022-09-10T17:24:38.961Z,13.00
2022-09-10T17:29:41.135Z,12.96
2022-09-10T17:34:44.760Z,12.98
2022-09-10T17:39:47.156Z,12.99
2022-09-10T17:44:48.907Z,13.01
2022-09-10T17:49:51.548Z,13.00
2022-09-10T17:54:53.404Z,13.01
2022-09-10T17:59:55.171Z,13.04
2022-09-10T18:04:57.147Z,13.09
2022-09-10T18:10:02.524Z,13.12
2022-09-10T18:15:05.837Z,13.09
2022-09-10T18:20:08.053Z,13.09
2022-09-10T18:25:09.696Z,13.06
2022-09-10T18:30:13.145Z,13.02
2022-09-10T18:35:14.852Z,12.98
2022-09-10T18:40:17.581Z,12.97
2022-09-10T18:45:19.946Z,12.94
2022-09-10T18:50:25.845Z,12.95
2022-09-10T18:55:28.153Z,12.98
2022-09-10T19:00:29.716Z,12.99
2022-09-10T19:05:31.607Z,12.98
2022-09-10T19:10:36.110Z,12.96
2022-09-10T19:15:37.668Z,12.94
2022-09-10T19:20:39.467Z,12.95
2022-09-10T19:25:56.698Z,12.92
2022-09-10T19:31:02.755Z,12.84
2022-09-10T19:36:09.537Z,12.74
2022-09-10T19:41:18.393Z,12.65
2022-09-10T19:46:24.610Z,12.55
2022-09-10T19:51:36.079Z,12.53
2022-09-10T19:56:41.950Z,12.51
2022-09-10T20:01:45.714Z,12.41
2022-09-10T20:06:50.256Z,12.34
2022-09-10T20:11:52.106Z,12.34
2022-09-10T20:16:54.221Z,12.32
2022-09-10T20:21:55.798Z,12.33
2022-09-10T20:26:57.747Z,12.35
2022-09-10T20:31:59.850Z,12.37
2022-09-10T20:37:02.539Z,12.41
2022-09-10T20:42:04.721Z,12.41
2022-09-10T20:47:08.528Z,12.41
2022-09-10T20:52:10.112Z,12.42
2022-09-10T20:57:11.971Z,12.43
2022-09-10T21:02:13.544Z,12.43
2022-09-10T21:07:16.575Z,12.41
2022-09-10T21:12:18.190Z,12.41
2022-09-10T21:17:19.739Z,12.45
2022-09-10T21:22:21.590Z,12.52
2022-09-10T21:27:23.488Z,12.55
2022-09-10T21:32:25.055Z,12.56
2022-09-10T21:37:26.583Z,12.55
2022-09-10T21:42:28.224Z,12.55
2022-09-10T21:47:30.564Z,12.53
2022-09-10T21:52:32.106Z,12.49
2022-09-10T21:57:33.669Z,12.43
2022-09-10T22:02:35.621Z,12.38
2022-09-10T22:07:37.162Z,12.41
2022-09-10T22:12:38.759Z,12.41
2022-09-10T22:17:40.792Z,12.42
2022-09-10T22:22:43.715Z,12.44
2022-09-10T22:27:45.216Z,12.44
2022-09-10T22:32:46.745Z,12.42
2022-09-10T22:37:48.266Z,12.44
2022-09-10T22:42:51.133Z,12.45
2022-09-10T22:47:52.693Z,12.43
2022-09-10T22:52:54.569Z,12.40
2022-09-10T22:57:56.064Z,12.35
2022-09-10T23:02:57.647Z,12.30
2022-09-10T23:07:59.198Z,12.30
2022-09-10T23:13:00.820Z,12.34
2022-09-10T23:18:02.367Z,12.36
2022-09-10T23:23:03.845Z,12.36
2022-09-10T23:28:07.360Z,12.31
2022-09-10T23:33:09.281Z,12.20
2022-09-10T23:38:10.826Z,12.15
2022-09-10T23:43:13.869Z,12.14
2022-09-10T23:48:15.407Z,12.07
2022-09-10T23:53:18.350Z,12.03
2022-09-10T23:58:21.044Z,12.03
